Time;durP1;ratioP1;P1;durP2;ratioP2;P2;SDS_P1;SDS_P2;PMS_P1;PMS_P2;Temp;Humidity;BMP_temperature;BMP_pressure;BME280_temperature;BME280_humidity;BME280_pressure;Samples;Min_cycle;Max_cycle;Signal;HPM_P1;HPM_P2
2020/12/04 00:00:49;;;;;;;6.82;2.58;;;19.70;86.80;;;;;;5959588;24;20017;-84
2020/12/04 00:04:11;;;;;;;;;;;;;;;;;;;;;
2020/12/04 00:07:37;;;;;;;8.73;2.90;;;19.70;87.30;;;;;;6034584;23;20011;-84
2020/12/04 00:11:19;;;;;;;4.85;2.45;;;19.70;87.40;;;;;;6039620;23;20027;-84
2020/12/04 00:14:26;;;;;;;5.45;2.50;;;19.70;87.90;;;;;;5930991;24;20584;-85
2020/12/04 00:18:11;;;;;;;7.05;2.90;;;19.70;88.10;;;;;;5956438;24;20714;-85
2020/12/04 00:21:00;;;;;;;6.18;2.30;;;19.70;88.10;;;;;;5972347;24;20008;-85
2020/12/04 00:24:18;;;;;;;;;;;;;;;;;;;;;
2020/12/04 00:40:22;;;;;;;3.45;2.17;;;19.90;87.40;;;;;;6018192;23;20499;-85
2020/12/04 00:44:03;;;;;;;4.70;2.22;;;20.00;87.20;;;;;;5999317;23;20031;-84
2020/12/04 00:56:40;;;;;;;5.85;2.55;;;19.90;87.30;;;;;;5939490;24;20027;-84
2020/12/04 01:00:30;;;;;;;5.80;2.58;;;19.90;87.60;;;;;;5945193;24;20535;-83
2020/12/04 01:03:46;;;;;;;5.22;2.60;;;19.90;87.80;;;;;;5956458;24;20019;-84
2020/12/04 01:06:13;;;;;;;4.75;2.38;;;19.90;88.50;;;;;;5961348;24;20027;-83
2020/12/04 01:08:41;;;;;;;6.03;2.28;;;19.80;88.00;;;;;;6002588;23;20335;-84
2020/12/04 01:11:09;;;;;;;4.95;2.33;;;19.80;88.00;;;;;;6044257;23;20400;-84
2020/12/04 01:13:37;;;;;;;7.63;2.38;;;19.80;88.10;;;;;;6043762;23;20019;-83
2020/12/04 01:16:11;;;;;;;6.68;2.35;;;19.70;88.30;;;;;;6038650;23;20053;-84
2020/12/04 01:18:40;;;;;;;5.07;2.10;;;19.70;88.40;;;;;;6048921;23;20029;-82
2020/12/04 01:21:12;;;;;;;4.45;2.30;;;19.70;88.60;;;;;;6081125;23;20018;-81
2020/12/04 01:23:40;;;;;;;4.70;2.15;;;19.70;88.70;;;;;;6147709;23;20077;-83
2020/12/04 01:26:10;;;;;;;6.60;2.20;;;19.60;88.80;;;;;;6144376;23;20029;-83
2020/12/04 01:28:37;;;;;;;8.57;2.53;;;19.60;89.00;;;;;;6103622;23;20037;-84
2020/12/04 01:31:09;;;;;;;5.07;2.30;;;19.60;89.10;;;;;;6122007;23;20014;-84
2020/12/04 01:33:37;;;;;;;5.53;2.28;;;19.50;89.30;;;;;;6121847;23;20021;-82
2020/12/04 01:36:04;;;;;;;6.35;2.35;;;19.50;89.40;;;;;;6097102;23;20018;-84
2020/12/04 01:38:36;;;;;;;5.10;2.30;;;19.50;89.50;;;;;;6134807;23;20018;-84
2020/12/04 01:41:04;;;;;;;4.85;2.30;;;19.40;89.60;;;;;;6156832;23;20021;-84
2020/12/04 01:43:31;;;;;;;4.80;2.25;;;19.40;89.80;;;;;;6151317;23;20028;-84
2020/12/04 01:45:58;;;;;;;5.73;1.93;;;19.40;89.80;;;;;;6126721;23;20028;-83
2020/12/04 01:48:28;;;;;;;5.53;2.22;;;19.40;90.00;;;;;;6150424;23;20096;-84
2020/12/04 01:50:55;;;;;;;5.53;2.00;;;19.40;90.00;;;;;;6125832;23;20716;-83
2020/12/04 01:53:22;;;;;;;6.10;2.40;;;19.40;90.10;;;;;;6125017;23;20029;-83
2020/12/04 01:55:51;;;;;;;4.65;2.10;;;19.40;90.10;;;;;;6151054;23;20033;-84
2020/12/04 01:58:18;;;;;;;3.13;1.98;;;19.40;90.10;;;;;;6150266;23;20699;-84
2020/12/04 02:00:45;;;;;;;4.30;2.00;;;19.40;90.00;;;;;;6150571;23;20350;-83
2020/12/04 02:03:14;;;;;;;2.10;1.60;;;19.50;90.00;;;;;;6126393;23;20018;-84
2020/12/04 02:06:02;;;;;;;6.18;2.50;;;19.50;90.00;;;;;;6156787;23;20029;-83
2020/12/04 02:08:37;;;;;;;5.72;2.25;;;19.50;89.80;;;;;;6130084;23;20025;-84
2020/12/04 02:11:18;;;;;;;5.35;2.10;;;19.50;89.70;;;;;;6151005;23;20021;-83
2020/12/04 02:13:49;;;;;;;5.35;2.30;;;19.50;89.60;;;;;;6156551;23;20479;-83
2020/12/04 02:16:18;;;;;;;5.20;2.20;;;19.50;89.60;;;;;;6153209;23;20040;-81
2020/12/04 02:18:50;;;;;;;5.30;2.17;;;19.50;89.60;;;;;;6126238;23;20025;-82
2020/12/04 02:21:17;;;;;;;4.45;2.08;;;19.60;89.60;;;;;;6127626;23;20033;-82
2020/12/04 02:23:49;;;;;;;4.18;2.10;;;19.50;90.00;;;;;;6151662;23;20028;-82
2020/12/04 02:26:25;;;;;;;3.95;1.80;;;19.50;89.40;;;;;;6126805;23;20017;-83
2020/12/04 02:28:53;;;;;;;4.60;1.80;;;19.50;89.50;;;;;;6154343;23;20018;-85
2020/12/04 02:31:26;;;;;;;5.38;1.88;;;19.50;89.60;;;;;;6149656;23;20028;-83
2020/12/04 02:33:53;;;;;;;5.75;2.25;;;19.40;89.70;;;;;;6136236;23;20029;-83
2020/12/04 02:36:23;;;;;;;6.20;2.22;;;19.40;90.00;;;;;;6129514;23;20025;-83
2020/12/04 02:38:50;;;;;;;5.15;1.95;;;19.30;90.00;;;;;;6152084;23;20021;-83
2020/12/04 02:41:16;;;;;;;4.70;1.83;;;19.30;90.10;;;;;;6152358;23;20064;-83
2020/12/04 02:43:43;;;;;;;3.92;2.00;;;19.30;90.20;;;;;;6151839;23;20017;-84
2020/12/04 02:46:10;;;;;;;5.43;2.13;;;19.20;90.30;;;;;;6154297;23;20017;-82
2020/12/04 02:48:38;;;;;;;5.63;2.25;;;19.20;90.40;;;;;;6131803;23;20022;-83
2020/12/04 02:51:07;;;;;;;6.22;2.42;;;19.20;90.40;;;;;;6140072;23;20028;-83
2020/12/04 02:53:34;;;;;;;3.30;1.83;;;19.20;90.50;;;;;;6148013;23;20016;-81
2020/12/04 02:56:01;;;;;;;4.25;1.75;;;19.10;90.50;;;;;;6131918;23;20053;-86
2020/12/04 02:58:29;;;;;;;3.67;1.92;;;19.10;90.60;;;;;;6152955;23;20021;-83
2020/12/04 03:00:59;;;;;;;5.10;1.98;;;19.10;90.60;;;;;;6146342;23;20032;-82
2020/12/04 03:03:26;;;;;;;4.87;2.10;;;19.10;90.60;;;;;;6140790;23;20028;-82
2020/12/04 03:05:53;;;;;;;4.60;1.90;;;19.10;90.70;;;;;;6139238;23;20249;-83
2020/12/04 03:08:25;;;;;;;7.18;2.15;;;19.10;90.60;;;;;;6137246;23;20024;-83
2020/12/04 03:10:53;;;;;;;3.60;1.90;;;19.20;90.80;;;;;;6104875;23;20033;-84
2020/12/04 03:13:22;;;;;;;2.83;1.70;;;19.20;90.50;;;;;;6102376;23;20021;-83
2020/12/04 03:16:04;;;;;;;;;;;;;;;;;;;;;
2020/12/04 03:20:02;;;;;;;;;;;;;;;;;;;;;
2020/12/04 03:26:53;;;;;;;3.33;1.90;;;19.30;90.40;;;;;;6293003;22;20078;-82
2020/12/04 03:30:14;;;;;;;;;;;;;;;;;;;;;
2020/12/04 03:34:15;;;;;;;3.42;1.95;;;19.30;90.40;;;;;;6182279;23;20036;-86
2020/12/04 03:38:27;;;;;;;5.22;2.10;;;19.30;90.40;;;;;;5994178;24;20038;-83
2020/12/04 03:45:40;;;;;;;2.35;1.52;;;19.40;90.20;;;;;;5920230;24;20052;-84
2020/12/04 03:48:08;;;;;;;2.77;1.73;;;19.40;90.20;;;;;;6058545;23;20019;-83
2020/12/04 03:50:35;;;;;;;4.60;2.10;;;19.40;90.20;;;;;;6084972;23;20243;-84
2020/12/04 03:53:01;;;;;;;2.88;1.83;;;19.40;90.10;;;;;;6088462;23;20037;-86
2020/12/04 03:55:28;;;;;;;3.22;1.63;;;19.40;90.10;;;;;;6093448;23;20037;-87
2020/12/04 03:57:55;;;;;;;3.33;2.00;;;19.40;90.10;;;;;;6093519;23;20025;-88
2020/12/04 04:00:22;;;;;;;4.27;2.10;;;19.40;90.00;;;;;;6069294;23;20066;-86
2020/12/04 04:02:49;;;;;;;4.20;1.90;;;19.40;90.00;;;;;;6078335;23;20023;-82
2020/12/04 04:05:17;;;;;;;3.75;2.00;;;19.40;90.00;;;;;;6039804;23;20019;-81
2020/12/04 04:07:43;;;;;;;4.38;1.70;;;19.40;90.00;;;;;;6063283;23;20023;-82
2020/12/04 04:10:11;;;;;;;2.80;1.92;;;19.30;90.00;;;;;;6119897;23;20064;-82
2020/12/04 04:12:40;;;;;;;3.85;2.05;;;19.30;90.10;;;;;;6255414;22;20480;-81
2020/12/04 04:15:06;;;;;;;4.22;1.98;;;19.20;90.10;;;;;;6312762;22;20011;-83
2020/12/04 04:17:33;;;;;;;4.43;2.10;;;19.20;90.20;;;;;;6311234;22;20018;-85
2020/12/04 04:20:00;;;;;;;4.00;2.07;;;19.10;90.20;;;;;;6306675;22;20015;-83
2020/12/04 04:22:27;;;;;;;5.88;2.08;;;19.10;90.20;;;;;;6306276;22;20245;-83
2020/12/04 04:24:55;;;;;;;2.55;1.67;;;19.10;90.30;;;;;;6306134;22;20015;-82
2020/12/04 04:27:22;;;;;;;;;;;19.00;90.40;;;;;;6288603;22;20015;-83
2020/12/04 04:29:50;;;;;;;3.85;2.15;;;19.00;90.50;;;;;;6253211;22;19922;-84
2020/12/04 04:32:17;;;;;;;3.78;1.80;;;19.00;90.60;;;;;;6252294;22;20019;-83
2020/12/04 04:34:44;;;;;;;3.53;1.90;;;18.90;90.60;;;;;;6277570;22;20030;-81
2020/12/04 04:37:11;;;;;;;4.83;2.03;;;18.90;90.60;;;;;;6252138;22;20019;-81
2020/12/04 04:39:38;;;;;;;3.73;2.10;;;18.90;90.70;;;;;;6278996;22;20346;-83
2020/12/04 04:42:05;;;;;;;2.87;2.00;;;18.90;90.80;;;;;;6277351;22;20019;-82
2020/12/04 04:44:34;;;;;;;3.40;2.00;;;18.90;91.00;;;;;;6278174;22;20020;-82
2020/12/04 04:47:06;;;;;;;3.75;2.00;;;18.80;90.80;;;;;;6279358;22;20211;-82
2020/12/04 04:49:40;;;;;;;5.20;1.90;;;18.80;90.90;;;;;;6255536;22;20023;-83
2020/12/04 04:52:08;;;;;;;4.35;2.03;;;18.80;90.90;;;;;;6281065;22;20019;-83
2020/12/04 04:54:39;;;;;;;4.53;2.08;;;18.80;91.00;;;;;;6281417;22;20347;-83
2020/12/04 04:57:08;;;;;;;4.18;1.83;;;18.80;91.00;;;;;;6256606;22;20026;-82
2020/12/04 04:59:35;;;;;;;3.53;1.77;;;18.80;91.10;;;;;;6251824;22;20022;-81
2020/12/04 05:02:03;;;;;;;2.67;1.45;;;18.80;91.00;;;;;;6277655;22;20015;-84
2020/12/04 05:04:47;;;;;;;2.45;1.55;;;19.00;90.90;;;;;;6281954;22;20026;-82
2020/12/04 05:07:30;;;;;;;4.80;2.05;;;19.10;90.90;;;;;;6295131;22;20007;-83
2020/12/04 05:10:15;;;;;;;3.08;1.60;;;19.20;90.70;;;;;;6260368;22;20019;-85
2020/12/04 05:12:45;;;;;;;3.78;1.60;;;19.40;90.40;;;;;;6265254;22;20023;-82
2020/12/04 05:15:39;;;;;;;4.10;2.00;;;19.50;90.10;;;;;;6318927;22;20019;-84
2020/12/04 05:18:11;;;;;;;3.13;1.75;;;19.70;89.40;;;;;;6296348;22;20265;-85
2020/12/04 05:20:58;;;;;;;4.63;1.55;;;19.90;88.90;;;;;;6279900;22;20026;-85
2020/12/04 05:23:28;;;;;;;4.72;2.33;;;20.00;88.10;;;;;;6306333;22;20011;-85
2020/12/04 05:25:55;;;;;;;2.25;1.52;;;20.10;87.40;;;;;;6328666;22;20019;-82
2020/12/04 05:28:25;;;;;;;5.60;1.88;;;20.20;87.00;;;;;;6331256;22;20055;-83
2020/12/04 05:31:08;;;;;;;2.10;1.40;;;20.30;86.50;;;;;;6303448;22;20075;-87
2020/12/04 05:33:38;;;;;;;3.25;1.70;;;20.30;86.20;;;;;;6267422;22;20016;-85
2020/12/04 05:36:05;;;;;;;2.65;1.70;;;20.40;85.80;;;;;;6301240;22;20025;-85
2020/12/04 05:38:33;;;;;;;4.18;1.77;;;20.60;85.30;;;;;;6311370;22;20019;-83
2020/12/04 05:41:08;;;;;;;4.53;1.88;;;20.60;85.00;;;;;;6261040;22;20019;-84
2020/12/04 05:43:37;;;;;;;3.47;1.77;;;20.70;84.80;;;;;;6282345;22;20014;-85
2020/12/04 05:46:26;;;;;;;7.80;1.98;;;20.70;84.80;;;;;;6285194;22;20019;-85
2020/12/04 05:49:04;;;;;;;5.40;1.90;;;20.70;84.80;;;;;;6288024;22;20086;-86
2020/12/04 05:51:35;;;;;;;5.57;1.75;;;20.70;85.00;;;;;;6325784;22;20020;-85
2020/12/04 05:54:04;;;;;;;2.92;1.75;;;20.70;85.00;;;;;;6255069;22;20027;-85
2020/12/04 05:56:35;;;;;;;5.38;1.75;;;20.70;85.10;;;;;;6255541;22;20132;-83
2020/12/04 05:59:06;;;;;;;5.88;2.10;;;20.80;85.10;;;;;;6283686;22;20023;-85
2020/12/04 06:13:43;;;;;;;22.13;4.95;;;21.00;88.10;;;;;;5958172;24;20045;-83
2020/12/04 06:17:00;;;;;;;23.33;4.93;;;21.10;89.50;;;;;;5948357;24;20457;-82
2020/12/04 06:19:29;;;;;;;20.23;4.38;;;21.10;89.50;;;;;;6070152;23;20022;-81
2020/12/04 06:22:17;;;;;;;17.38;3.63;;;21.10;89.60;;;;;;6082582;23;20044;-83
2020/12/04 06:25:16;;;;;;;21.67;4.68;;;21.10;89.90;;;;;;6092225;23;20029;-83
2020/12/04 06:28:47;;;;;;;17.38;4.57;;;21.20;89.90;;;;;;6084844;23;20032;-83
2020/12/04 06:32:07;;;;;;;26.33;4.18;;;21.10;90.20;;;;;;6063893;23;20018;-80
2020/12/04 06:35:34;;;;;;;17.90;4.25;;;21.10;90.90;;;;;;6074359;23;20010;-84
2020/12/04 06:38:51;;;;;;;21.20;3.65;;;21.10;90.90;;;;;;6045355;23;20019;-83
2020/12/04 06:41:18;;;;;;;23.30;4.22;;;21.30;91.10;;;;;;5952496;23;20038;-81
2020/12/04 06:43:50;;;;;;;18.20;4.15;;;21.30;92.00;;;;;;6237364;22;20034;-80
2020/12/04 06:46:41;;;;;;;17.60;4.30;;;21.50;92.20;;;;;;6301479;22;20011;-81
2020/12/04 06:49:10;;;;;;;20.40;4.88;;;21.70;92.30;;;;;;6319667;22;20022;-82
2020/12/04 06:52:03;;;;;;;16.95;3.95;;;21.80;92.60;;;;;;6322448;22;20014;-83
2020/12/04 06:54:32;;;;;;;22.10;4.82;;;21.90;92.70;;;;;;6260424;22;20019;-80
2020/12/04 06:57:00;;;;;;;23.88;6.00;;;22.00;92.60;;;;;;6285613;22;20012;-85
2020/12/04 06:59:42;;;;;;;25.38;4.57;;;22.20;92.40;;;;;;6312757;22;20014;-83
2020/12/04 07:02:14;;;;;;;20.50;4.13;;;22.20;91.90;;;;;;6302525;22;20021;-82
2020/12/04 07:04:49;;;;;;;24.30;4.40;;;22.30;91.60;;;;;;6301960;22;20015;-85
2020/12/04 07:07:25;;;;;;;16.13;4.28;;;22.20;91.70;;;;;;6285407;22;20026;-82
2020/12/04 07:09:57;;;;;;;15.77;4.35;;;22.00;78.90;;;;;;6291724;22;20355;-79
2020/12/04 07:12:27;;;;;;;12.43;3.95;;;21.40;69.00;;;;;;6318496;22;20019;-81
2020/12/04 07:14:55;;;;;;;12.77;4.10;;;20.40;66.40;;;;;;6280706;22;20407;-80
2020/12/04 07:17:32;;;;;;;13.88;3.40;;;20.20;70.30;;;;;;6274284;22;20015;-81
2020/12/04 07:19:59;;;;;;;14.70;3.90;;;20.30;72.80;;;;;;6313569;22;20011;-81
2020/12/04 07:22:27;;;;;;;16.92;3.53;;;20.50;74.10;;;;;;6307471;22;20011;-81
2020/12/04 07:24:59;;;;;;;14.52;3.78;;;20.80;74.90;;;;;;6283969;22;20012;-82
2020/12/04 07:27:29;;;;;;;13.77;3.33;;;21.00;75.30;;;;;;6308348;22;20450;-80
2020/12/04 07:30:07;;;;;;;11.73;2.97;;;21.10;75.70;;;;;;6257687;22;20011;-80
2020/12/04 07:33:29;;;;;;;14.93;3.40;;;21.10;76.40;;;;;;6266176;22;20019;-81
2020/12/04 07:36:15;;;;;;;9.57;3.15;;;21.20;76.90;;;;;;6280254;22;20022;-82
2020/12/04 07:39:07;;;;;;;14.77;3.30;;;21.20;77.10;;;;;;6295340;22;20007;-82
2020/12/04 08:00:06;;;;;;;13.82;3.88;;;21.50;80.40;;;;;;6187044;23;20530;-79
2020/12/04 08:11:39;;;;;;;15.30;4.07;;;21.70;82.80;;;;;;5994963;23;20038;-80
2020/12/04 08:36:30;;;;;;;12.38;3.47;;;20.90;63.70;;;;;;6114608;23;20476;-80
2020/12/04 08:40:31;;;;;;;14.07;3.78;;;20.80;63.20;;;;;;6108550;23;20033;-80
2020/12/04 09:08:12;;;;;;;12.00;3.78;;;21.00;63.10;;;;;;6110581;23;20025;-82
2020/12/04 09:10:58;;;;;;;7.78;3.13;;;21.00;62.80;;;;;;6200955;23;20026;-80
2020/12/04 09:14:17;;;;;;;11.45;3.55;;;21.00;62.60;;;;;;6219033;23;20034;-80
2020/12/04 09:21:43;;;;;;;;;;;;;;;;;;;;;
2020/12/04 09:25:44;;;;;;;12.15;3.42;;;21.10;61.70;;;;;;6194286;23;20046;-81
2020/12/04 09:29:08;;;;;;;13.70;3.85;;;21.10;61.40;;;;;;6061960;23;20041;-80
2020/12/04 09:50:01;;;;;;;;;;;;;;;;;;;;;
2020/12/04 09:53:05;;;;;;;5.30;2.42;;;22.00;63.10;;;;;;5863053;24;20029;-83
2020/12/04 09:55:48;;;;;;;8.35;2.80;;;22.20;63.30;;;;;;5838215;24;20029;-82
2020/12/04 09:58:40;;;;;;;6.10;2.40;;;22.30;63.50;;;;;;5840985;24;20018;-83
2020/12/04 10:01:38;;;;;;;6.93;2.30;;;22.50;63.70;;;;;;5871532;24;20493;-82
2020/12/04 10:04:18;;;;;;;6.93;2.55;;;22.50;64.00;;;;;;5835607;24;20439;-81
2020/12/04 10:06:47;;;;;;;6.15;2.35;;;22.70;64.20;;;;;;5843697;24;20010;-82
2020/12/04 10:09:24;;;;;;;6.38;2.60;;;22.70;64.40;;;;;;5848556;24;20024;-81
2020/12/04 10:11:57;;;;;;;5.20;2.50;;;22.60;64.80;;;;;;5843251;24;20024;-81
2020/12/04 10:14:24;;;;;;;6.18;2.25;;;22.60;65.30;;;;;;5867979;24;20025;-82
2020/12/04 10:16:52;;;;;;;8.10;3.25;;;22.50;65.70;;;;;;5962347;24;20203;-81
2020/12/04 10:19:36;;;;;;;7.00;2.80;;;22.50;66.00;;;;;;5988701;23;20613;-81
2020/12/04 10:22:13;;;;;;;6.57;2.15;;;22.50;66.50;;;;;;6034635;23;20031;-81
2020/12/04 10:24:41;;;;;;;3.90;2.15;;;22.50;66.70;;;;;;6017560;23;20023;-81
2020/12/04 10:27:14;;;;;;;9.45;2.95;;;22.50;67.00;;;;;;6182718;23;20025;-80
2020/12/04 10:30:36;;;;;;;8.57;2.40;;;22.40;67.30;;;;;;6176121;22;20028;-79
2020/12/04 10:37:32;;;;;;;4.72;2.10;;;22.40;68.10;;;;;;6208509;23;20004;-83
2020/12/04 10:40:38;;;;;;;6.57;2.65;;;22.40;68.50;;;;;;6245770;23;20024;-82
2020/12/04 10:43:34;;;;;;;5.75;2.42;;;22.40;68.70;;;;;;6208144;23;20027;-82
2020/12/04 11:33:40;;;;;;;4.38;1.80;;;21.90;74.70;;;;;;5964537;24;20364;-81
2020/12/04 11:37:27;;;;;;;7.13;2.33;;;21.80;74.90;;;;;;5934991;24;20017;-81
2020/12/04 11:40:24;;;;;;;6.38;2.22;;;21.80;75.10;;;;;;5939947;24;20020;-80
2020/12/04 11:44:20;;;;;;;5.05;1.95;;;21.70;75.10;;;;;;5937511;24;20031;-81
2020/12/04 11:55:55;;;;;;;4.75;1.98;;;21.90;74.80;;;;;;5887663;24;20030;-82
2020/12/04 12:12:28;;;;;;;6.03;1.88;;;22.10;76.30;;;;;;5953451;24;20023;-81
2020/12/04 12:15:22;;;;;;;5.35;2.13;;;22.00;76.30;;;;;;5945069;24;20021;-81
2020/12/04 12:18:30;;;;;;;4.50;1.92;;;22.00;76.30;;;;;;5986696;24;20015;-81
2020/12/04 12:21:24;;;;;;;4.47;2.10;;;22.00;76.30;;;;;;5975284;24;20016;-82
2020/12/04 12:23:55;;;;;;;9.25;2.35;;;21.90;76.60;;;;;;5961161;24;20023;-81
2020/12/04 12:30:32;;;;;;;6.90;1.77;;;21.70;77.00;;;;;;5992873;24;20065;-81
2020/12/04 12:38:12;;;;;;;5.45;1.77;;;21.70;77.30;;;;;;5990545;23;20019;-81
2020/12/04 12:41:22;;;;;;;6.35;1.80;;;21.70;77.40;;;;;;6030460;23;20369;-82
2020/12/04 12:44:37;;;;;;;7.28;2.33;;;21.70;77.50;;;;;;6165926;23;20128;-82
2020/12/04 12:52:20;;;;;;;;;;;;;;;;;;;;;
2020/12/04 12:55:21;;;;;;;4.07;2.08;;;21.80;77.60;;;;;;6089781;23;19909;-82
2020/12/04 12:58:26;;;;;;;4.68;2.15;;;21.80;77.50;;;;;;6091813;23;20369;-82
2020/12/04 13:00:57;;;;;;;7.50;2.03;;;21.70;77.70;;;;;;6143562;23;20025;-82
2020/12/04 13:03:25;;;;;;;2.85;1.70;;;21.70;77.90;;;;;;6153444;23;20077;-80
2020/12/04 13:06:08;;;;;;;4.72;1.88;;;21.70;78.10;;;;;;6179871;23;20061;-82
2020/12/04 13:09:14;;;;;;;6.05;2.05;;;21.70;78.10;;;;;;6175103;23;20077;-82
2020/12/04 13:15:27;;;;;;;3.42;1.65;;;21.70;78.10;;;;;;6221906;23;20029;-82
2020/12/04 13:17:57;;;;;;;5.75;1.95;;;21.70;78.20;;;;;;6261313;23;20035;-80
2020/12/04 13:20:24;;;;;;;3.95;1.73;;;21.70;78.30;;;;;;6252076;23;20013;-81
2020/12/04 13:25:51;;;;;;;7.28;2.00;;;21.70;78.40;;;;;;6226477;23;20079;-82
2020/12/04 13:28:22;;;;;;;11.05;2.58;;;21.80;78.30;;;;;;6244623;23;20025;-83
2020/12/04 13:31:01;;;;;;;4.88;2.25;;;22.00;78.00;;;;;;6195879;23;20020;-82
2020/12/04 13:33:32;;;;;;;5.03;1.88;;;22.10;77.80;;;;;;6198582;23;20026;-81
2020/12/04 13:36:04;;;;;;;7.97;2.25;;;22.10;77.50;;;;;;6233805;23;20020;-82
2020/12/04 13:38:47;;;;;;;5.78;2.13;;;22.20;77.40;;;;;;6198608;23;20024;-81
2020/12/04 13:41:20;;;;;;;4.53;2.08;;;22.20;77.50;;;;;;6197128;23;20021;-81
2020/12/04 13:43:48;;;;;;;4.43;1.55;;;22.20;77.60;;;;;;6198741;23;20020;-81
2020/12/04 13:46:18;;;;;;;6.07;1.98;;;22.20;77.60;;;;;;6207324;23;20029;-80
2020/12/04 13:48:59;;;;;;;7.10;2.10;;;22.20;77.60;;;;;;6195963;23;20031;-81
2020/12/04 13:51:40;;;;;;;4.50;2.22;;;22.10;78.30;;;;;;6244798;23;20019;-81
2020/12/04 13:54:17;;;;;;;4.85;2.00;;;22.20;77.80;;;;;;6225024;23;20013;-82
2020/12/04 13:56:55;;;;;;;5.97;2.10;;;22.10;77.80;;;;;;6219100;23;20031;-81
2020/12/04 13:59:22;;;;;;;6.90;1.83;;;22.10;77.90;;;;;;6224919;23;20027;-79
2020/12/04 14:01:55;;;;;;;3.65;1.52;;;22.10;78.00;;;;;;6200686;23;20027;-81
2020/12/04 14:04:22;;;;;;;4.20;1.65;;;22.00;78.20;;;;;;6207843;23;20019;-81
2020/12/04 14:06:52;;;;;;;4.90;2.45;;;22.00;78.50;;;;;;6228895;23;20023;-81
2020/12/04 14:09:22;;;;;;;5.45;1.85;;;21.90;78.60;;;;;;6202575;23;20027;-82
2020/12/04 14:15:33;;;;;;;3.63;1.90;;;21.90;79.00;;;;;;6206209;23;20130;-83
2020/12/04 14:18:31;;;;;;;3.97;1.98;;;21.90;79.20;;;;;;6221874;23;20016;-81
2020/12/04 14:21:19;;;;;;;9.65;3.47;;;21.80;79.20;;;;;;6228154;23;20015;-80
2020/12/04 14:24:23;;;;;;;13.95;4.38;;;21.70;66.70;;;;;;6235915;23;20017;-80
2020/12/04 14:26:54;;;;;;;12.77;4.63;;;21.00;63.40;;;;;;6230445;23;20032;-80
2020/12/04 14:29:25;;;;;;;12.43;4.55;;;20.50;63.80;;;;;;6193652;23;20021;-81
2020/12/04 14:32:19;;;;;;;13.23;5.10;;;20.00;64.20;;;;;;6229812;23;20043;-81
2020/12/04 14:35:04;;;;;;;13.75;4.57;;;19.70;65.10;;;;;;6222783;23;20021;-81
2020/12/04 14:39:03;;;;;;;19.50;5.43;;;19.40;65.30;;;;;;6222179;23;20539;-79
2020/12/04 14:41:58;;;;;;;15.30;4.25;;;19.10;67.20;;;;;;6164296;23;20039;-82
2020/12/04 15:44:07;;;;;;;9.32;3.15;;;22.70;69.20;;;;;;6096034;23;20144;-84
2020/12/04 15:55:55;;;;;;;11.82;3.40;;;22.50;71.60;;;;;;5949940;24;20066;-86
2020/12/04 16:02:30;;;;;;;12.45;3.20;;;22.40;71.90;;;;;;6011757;23;20038;-82
2020/12/04 16:06:00;;;;;;;13.10;3.00;;;22.50;72.50;;;;;;6004687;23;20026;-83
2020/12/04 16:08:27;;;;;;;10.80;3.03;;;22.60;74.60;;;;;;5994658;23;20016;-83
2020/12/04 16:10:54;;;;;;;7.60;2.73;;;22.60;74.60;;;;;;5994136;23;20415;-86
2020/12/04 16:18:16;;;;;;;9.82;2.92;;;22.70;73.90;;;;;;5923105;24;20019;-85
2020/12/04 16:20:43;;;;;;;5.90;2.38;;;22.70;72.80;;;;;;5950188;24;20015;-85
2020/12/04 16:23:53;;;;;;;14.45;3.30;;;22.70;72.70;;;;;;5952693;24;20068;-85
2020/12/04 16:26:36;;;;;;;10.80;2.60;;;22.70;72.50;;;;;;6035337;23;20071;-87
2020/12/04 16:29:15;;;;;;;14.63;2.53;;;22.70;73.20;;;;;;6043570;23;20045;-87
2020/12/04 16:31:54;;;;;;;10.73;2.90;;;22.70;73.30;;;;;;6035821;23;20049;-85
2020/12/04 16:34:29;;;;;;;10.55;3.00;;;22.60;73.70;;;;;;6051715;23;20027;-82
2020/12/04 16:37:01;;;;;;;17.98;3.08;;;22.60;73.70;;;;;;6026178;23;20035;-82
2020/12/04 16:54:30;;;;;;;10.63;3.20;;;22.20;75.10;;;;;;6296557;22;20665;-86
2020/12/04 16:57:34;;;;;;;13.30;3.05;;;22.20;75.40;;;;;;6303131;22;20487;-86
2020/12/04 17:00:47;;;;;;;8.82;2.38;;;22.10;75.60;;;;;;6316642;22;20019;-83
2020/12/04 17:03:54;;;;;;;12.82;2.90;;;22.10;75.80;;;;;;6300007;22;20027;-83
2020/12/04 17:07:01;;;;;;;10.68;3.67;;;22.10;76.10;;;;;;6294948;22;20018;-84
2020/12/04 17:09:48;;;;;;;9.23;2.60;;;22.10;76.30;;;;;;6314006;22;20023;-85
2020/12/04 17:13:19;;;;;;;13.93;3.08;;;22.10;76.40;;;;;;6206996;23;20058;-84
2020/12/04 17:20:43;;;;;;;8.23;2.60;;;22.00;76.90;;;;;;6142824;23;20018;-85
2020/12/04 17:35:32;;;;;;;10.20;3.20;;;21.80;78.00;;;;;;6238186;22;20021;-86
2020/12/04 17:44:20;;;;;;;8.98;2.78;;;21.70;78.20;;;;;;6126522;23;20018;-84
2020/12/04 17:46:51;;;;;;;9.40;3.22;;;21.60;78.80;;;;;;6125464;23;20473;-82
2020/12/04 17:49:23;;;;;;;10.20;2.88;;;21.60;79.20;;;;;;6117254;23;20040;-84
2020/12/04 17:51:56;;;;;;;7.28;2.78;;;21.50;79.30;;;;;;6117053;23;20018;-85
2020/12/04 17:54:58;;;;;;;4.43;2.50;;;21.50;79.50;;;;;;6096889;23;20032;-84
2020/12/04 17:57:28;;;;;;;12.68;2.95;;;21.50;79.60;;;;;;6135669;23;20063;-86
2020/12/04 18:00:03;;;;;;;9.30;2.90;;;21.50;79.70;;;;;;6145815;23;20055;-86
2020/12/04 18:02:31;;;;;;;7.47;3.08;;;21.50;79.80;;;;;;6147479;23;20028;-82
2020/12/04 18:05:10;;;;;;;10.32;2.80;;;21.50;79.80;;;;;;6107159;23;20757;-84
2020/12/04 18:07:37;;;;;;;8.38;2.60;;;21.60;79.70;;;;;;6102650;23;20450;-84
2020/12/04 18:10:09;;;;;;;9.23;2.72;;;21.70;79.40;;;;;;6200705;23;20372;-84
2020/12/04 18:12:36;;;;;;;9.88;2.65;;;21.80;79.00;;;;;;6194879;23;20020;-83
2020/12/04 18:15:25;;;;;;;9.10;2.88;;;21.90;78.80;;;;;;6222004;23;20016;-87
2020/12/04 18:22:39;;;;;;;;;;;;;;;;;;;;;
2020/12/04 18:35:04;;;;;;;6.93;2.72;;;22.30;80.20;;;;;;6036212;23;20059;-85
2020/12/04 18:42:12;;;;;;;7.88;2.85;;;22.40;80.00;;;;;;6036551;23;20034;-84
2020/12/04 18:53:09;;;;;;;9.48;3.10;;;22.40;79.60;;;;;;6151153;23;20044;-82
2020/12/04 18:56:08;;;;;;;;;;;;;;;;;;;;;
2020/12/04 19:00:02;;;;;;;;;;;;;;;;;;;;;
2020/12/04 19:03:12;;;;;;;7.22;2.55;;;22.20;79.50;;;;;;6154536;23;20021;-84
2020/12/04 19:20:02;;;;;;;10.48;2.92;;;21.90;80.00;;;;;;5926099;24;20040;-85
2020/12/04 19:22:56;;;;;;;13.40;3.22;;;21.80;80.80;;;;;;5903659;24;20031;-83
2020/12/04 19:30:33;;;;;;;;;;;;;;;;;;;;;
2020/12/04 19:38:53;;;;;;;;;;;;;;;;;;;;;
2020/12/04 19:42:26;;;;;;;7.53;3.08;;;21.70;81.30;;;;;;5910158;24;20040;-85
2020/12/04 20:08:22;;;;;;;;;;;;;;;;;;;;;
2020/12/04 20:12:08;;;;;;;9.85;2.80;;;21.50;83.00;;;;;;5921976;24;20144;-81
2020/12/04 20:15:05;;;;;;;;;;;;;;;;;;;;;
2020/12/04 20:23:38;;;;;;;7.70;2.55;;;21.50;83.80;;;;;;5911987;24;20059;-84
2020/12/04 20:54:01;;;;;;;9.52;2.90;;;21.50;82.60;;;;;;6092038;23;20033;-87
2020/12/04 20:57:55;;;;;;;8.27;2.83;;;21.50;82.80;;;;;;6061161;23;20026;-86
2020/12/04 21:02:01;;;;;;;7.88;2.67;;;21.50;82.90;;;;;;5947240;24;20043;-85
2020/12/04 21:09:11;;;;;;;;;;;;;;;;;;;;;
2020/12/04 21:26:41;;;;;;;7.65;2.80;;;21.20;83.90;;;;;;6278591;22;20031;-79
2020/12/04 21:30:08;;;;;;;8.45;3.20;;;21.10;84.20;;;;;;6259214;22;20012;-79
2020/12/04 21:33:28;;;;;;;11.25;3.38;;;21.10;84.20;;;;;;6234371;22;20323;-79
2020/12/04 21:37:32;;;;;;;8.45;3.08;;;21.10;84.30;;;;;;6257094;22;20011;-79
2020/12/04 21:40:51;;;;;;;12.93;2.75;;;21.00;84.40;;;;;;6247167;22;20030;-78
2020/12/04 21:43:56;;;;;;;13.15;3.17;;;20.90;84.60;;;;;;6264260;22;20016;-80
2020/12/04 21:47:08;;;;;;;10.55;3.15;;;20.90;84.60;;;;;;6280232;22;20020;-81
2020/12/04 21:49:37;;;;;;;10.35;3.20;;;20.90;84.60;;;;;;6229913;22;20039;-79
2020/12/04 21:52:06;;;;;;;11.85;3.05;;;20.90;84.60;;;;;;6265163;22;20022;-80
2020/12/04 21:54:33;;;;;;;7.90;3.00;;;20.90;84.60;;;;;;6295787;22;20015;-80
2020/12/04 21:57:01;;;;;;;10.68;2.92;;;20.90;84.60;;;;;;6296077;22;20340;-80
2020/12/04 21:59:28;;;;;;;12.13;3.13;;;20.90;84.60;;;;;;6263709;22;20024;-79
2020/12/04 22:01:56;;;;;;;9.23;3.28;;;20.90;84.50;;;;;;6288820;22;20078;-79
2020/12/04 22:04:23;;;;;;;8.75;2.90;;;20.90;84.50;;;;;;6289705;22;20012;-79
2020/12/04 22:06:50;;;;;;;11.73;2.78;;;20.80;84.40;;;;;;6289994;22;20020;-80
2020/12/04 22:09:17;;;;;;;10.80;3.10;;;20.90;84.50;;;;;;6260692;22;20024;-79
2020/12/04 22:11:44;;;;;;;8.13;3.05;;;20.80;84.40;;;;;;6297638;22;20020;-79
2020/12/04 22:14:11;;;;;;;11.40;3.30;;;20.80;84.50;;;;;;6269962;22;20008;-80
2020/12/04 22:16:38;;;;;;;8.77;3.20;;;20.70;84.50;;;;;;6289799;22;20246;-79
2020/12/04 22:19:05;;;;;;;12.40;3.17;;;20.70;84.60;;;;;;6253334;23;20020;-78
2020/12/04 22:21:33;;;;;;;8.93;2.95;;;20.70;84.70;;;;;;6254198;23;20017;-80
2020/12/04 22:24:00;;;;;;;9.13;3.33;;;20.70;84.90;;;;;;6251980;23;20035;-79
2020/12/04 22:26:45;;;;;;;8.33;3.10;;;20.60;85.00;;;;;;6254459;23;20016;-80
2020/12/04 22:51:42;;;;;;;8.65;2.83;;;20.30;85.80;;;;;;6111275;23;20071;-80
2020/12/04 22:55:15;;;;;;;6.63;2.92;;;20.30;86.00;;;;;;6066475;23;20807;-81